sensor_id;sensor_type;location;lat;lon;timestamp;P1;durP1;ratioP1;P2;durP2;ratioP2
29240;SDS011;16268;49.880;8.648;2023-05-10T00:01:06;3.53;;;0.80;;
29240;SDS011;16268;49.880;8.648;2023-05-10T00:03:37;2.40;;;0.70;;
29240;SDS011;16268;49.880;8.648;2023-05-10T00:06:03;1.00;;;0.60;;
29240;SDS011;16268;49.880;8.648;2023-05-10T00:08:28;1.45;;;0.70;;
29240;SDS011;16268;49.880;8.648;2023-05-10T00:10:54;2.17;;;0.60;;
29240;SDS011;16268;49.880;8.648;2023-05-10T00:13:19;2.05;;;0.70;;
29240;SDS011;16268;49.880;8.648;2023-05-10T00:15:45;1.15;;;0.60;;
29240;SDS011;16268;49.880;8.648;2023-05-10T00:18:11;1.15;;;0.63;;
29240;SDS011;16268;49.880;8.648;2023-05-10T00:20:36;2.90;;;1.00;;
29240;SDS011;16268;49.880;8.648;2023-05-10T00:23:02;1.25;;;0.65;;
29240;SDS011;16268;49.880;8.648;2023-05-10T00:25:31;2.22;;;0.70;;
29240;SDS011;16268;49.880;8.648;2023-05-10T00:27:56;2.67;;;0.63;;
29240;SDS011;16268;49.880;8.648;2023-05-10T00:30:25;2.15;;;0.68;;
29240;SDS011;16268;49.880;8.648;2023-05-10T00:32:50;1.38;;;0.57;;
29240;SDS011;16268;49.880;8.648;2023-05-10T00:35:16;3.00;;;0.60;;
29240;SDS011;16268;49.880;8.648;2023-05-10T00:37:42;2.00;;;0.70;;
29240;SDS011;16268;49.880;8.648;2023-05-10T00:40:07;2.28;;;0.68;;
29240;SDS011;16268;49.880;8.648;2023-05-10T00:42:33;4.53;;;0.70;;
29240;SDS011;16268;49.880;8.648;2023-05-10T00:44:59;0.98;;;0.60;;
29240;SDS011;16268;49.880;8.648;2023-05-10T00:47:24;1.90;;;0.52;;
29240;SDS011;16268;49.880;8.648;2023-05-10T00:49:50;2.22;;;0.60;;
29240;SDS011;16268;49.880;8.648;2023-05-10T00:52:16;1.65;;;0.80;;
29240;SDS011;16268;49.880;8.648;2023-05-10T00:54:41;2.72;;;0.70;;
29240;SDS011;16268;49.880;8.648;2023-05-10T00:57:07;1.67;;;0.80;;
29240;SDS011;16268;49.880;8.648;2023-05-10T00:59:33;2.20;;;0.80;;
29240;SDS011;16268;49.880;8.648;2023-05-10T01:02:01;1.08;;;0.70;;
29240;SDS011;16268;49.880;8.648;2023-05-10T01:04:30;4.03;;;1.00;;
29240;SDS011;16268;49.880;8.648;2023-05-10T01:06:56;2.33;;;0.75;;
29240;SDS011;16268;49.880;8.648;2023-05-10T01:09:22;1.45;;;0.70;;
29240;SDS011;16268;49.880;8.648;2023-05-10T01:11:48;1.90;;;0.85;;
29240;SDS011;16268;49.880;8.648;2023-05-10T01:14:17;1.98;;;1.00;;
29240;SDS011;16268;49.880;8.648;2023-05-10T01:16:44;3.28;;;0.98;;
29240;SDS011;16268;49.880;8.648;2023-05-10T01:19:19;1.38;;;0.90;;
29240;SDS011;16268;49.880;8.648;2023-05-10T01:30:35;2.35;;;1.00;;
29240;SDS011;16268;49.880;8.648;2023-05-10T01:39:15;2.90;;;1.05;;
29240;SDS011;16268;49.880;8.648;2023-05-10T01:41:55;1.95;;;0.90;;
29240;SDS011;16268;49.880;8.648;2023-05-10T01:45:46;2.25;;;1.20;;
29240;SDS011;16268;49.880;8.648;2023-05-10T01:47:43;3.03;;;1.15;;
29240;SDS011;16268;49.880;8.648;2023-05-10T01:50:22;5.05;;;1.48;;
29240;SDS011;16268;49.880;8.648;2023-05-10T01:52:54;3.35;;;1.30;;
29240;SDS011;16268;49.880;8.648;2023-05-10T01:55:23;3.83;;;1.45;;
29240;SDS011;16268;49.880;8.648;2023-05-10T01:57:57;2.55;;;1.48;;
29240;SDS011;16268;49.880;8.648;2023-05-10T02:00:29;4.03;;;1.63;;
29240;SDS011;16268;49.880;8.648;2023-05-10T02:02:56;5.43;;;2.03;;
29240;SDS011;16268;49.880;8.648;2023-05-10T02:05:22;3.42;;;1.80;;
29240;SDS011;16268;49.880;8.648;2023-05-10T02:07:52;3.42;;;1.80;;
29240;SDS011;16268;49.880;8.648;2023-05-10T02:10:18;3.38;;;1.85;;
29240;SDS011;16268;49.880;8.648;2023-05-10T02:12:45;3.78;;;1.95;;
29240;SDS011;16268;49.880;8.648;2023-05-10T02:15:17;3.78;;;1.90;;
29240;SDS011;16268;49.880;8.648;2023-05-10T02:17:46;3.15;;;2.00;;
29240;SDS011;16268;49.880;8.648;2023-05-10T02:20:16;4.07;;;2.08;;
29240;SDS011;16268;49.880;8.648;2023-05-10T02:22:42;5.70;;;2.10;;
29240;SDS011;16268;49.880;8.648;2023-05-10T02:25:13;5.35;;;2.22;;
29240;SDS011;16268;49.880;8.648;2023-05-10T02:27:40;4.43;;;2.20;;
29240;SDS011;16268;49.880;8.648;2023-05-10T02:30:07;3.03;;;1.95;;
29240;SDS011;16268;49.880;8.648;2023-05-10T02:32:34;4.88;;;2.10;;
29240;SDS011;16268;49.880;8.648;2023-05-10T02:35:01;4.65;;;2.03;;
29240;SDS011;16268;49.880;8.648;2023-05-10T02:37:31;4.47;;;2.60;;
29240;SDS011;16268;49.880;8.648;2023-05-10T02:39:59;7.47;;;2.65;;
29240;SDS011;16268;49.880;8.648;2023-05-10T02:42:29;5.32;;;2.75;;
29240;SDS011;16268;49.880;8.648;2023-05-10T02:44:59;6.50;;;2.80;;
29240;SDS011;16268;49.880;8.648;2023-05-10T02:47:27;5.13;;;2.58;;
29240;SDS011;16268;49.880;8.648;2023-05-10T02:49:53;4.63;;;2.95;;
29240;SDS011;16268;49.880;8.648;2023-05-10T02:52:21;5.03;;;3.00;;
29240;SDS011;16268;49.880;8.648;2023-05-10T02:55:08;4.38;;;2.40;;
29240;SDS011;16268;49.880;8.648;2023-05-10T02:57:38;5.93;;;2.60;;
29240;SDS011;16268;49.880;8.648;2023-05-10T03:00:12;5.72;;;2.60;;
29240;SDS011;16268;49.880;8.648;2023-05-10T03:02:40;4.50;;;2.33;;
29240;SDS011;16268;49.880;8.648;2023-05-10T03:05:06;4.28;;;2.70;;
29240;SDS011;16268;49.880;8.648;2023-05-10T03:07:32;4.72;;;3.20;;
29240;SDS011;16268;49.880;8.648;2023-05-10T03:09:58;5.82;;;3.00;;
29240;SDS011;16268;49.880;8.648;2023-05-10T03:12:40;6.07;;;3.17;;
29240;SDS011;16268;49.880;8.648;2023-05-10T03:15:22;6.13;;;3.13;;
29240;SDS011;16268;49.880;8.648;2023-05-10T03:18:04;5.80;;;3.30;;
29240;SDS011;16268;49.880;8.648;2023-05-10T03:20:48;5.32;;;3.10;;
29240;SDS011;16268;49.880;8.648;2023-05-10T03:25:51;4.57;;;3.13;;
29240;SDS011;16268;49.880;8.648;2023-05-10T03:28:17;5.25;;;3.20;;
29240;SDS011;16268;49.880;8.648;2023-05-10T03:30:45;5.00;;;3.65;;
29240;SDS011;16268;49.880;8.648;2023-05-10T03:33:11;5.43;;;3.40;;
29240;SDS011;16268;49.880;8.648;2023-05-10T03:35:38;6.80;;;3.22;;
29240;SDS011;16268;49.880;8.648;2023-05-10T03:38:03;5.50;;;2.97;;
29240;SDS011;16268;49.880;8.648;2023-05-10T03:40:29;7.72;;;3.78;;
29240;SDS011;16268;49.880;8.648;2023-05-10T03:42:56;6.93;;;3.30;;
29240;SDS011;16268;49.880;8.648;2023-05-10T03:45:23;6.15;;;3.38;;
29240;SDS011;16268;49.880;8.648;2023-05-10T03:47:48;4.80;;;3.47;;
29240;SDS011;16268;49.880;8.648;2023-05-10T03:50:14;5.45;;;3.40;;
29240;SDS011;16268;49.880;8.648;2023-05-10T03:52:40;5.20;;;3.40;;
29240;SDS011;16268;49.880;8.648;2023-05-10T03:55:06;6.47;;;3.60;;
29240;SDS011;16268;49.880;8.648;2023-05-10T03:57:31;6.00;;;3.72;;
29240;SDS011;16268;49.880;8.648;2023-05-10T03:59:57;5.05;;;3.35;;
29240;SDS011;16268;49.880;8.648;2023-05-10T04:02:22;6.22;;;3.25;;
29240;SDS011;16268;49.880;8.648;2023-05-10T04:04:50;6.35;;;3.40;;
29240;SDS011;16268;49.880;8.648;2023-05-10T04:07:18;5.82;;;3.15;;
29240;SDS011;16268;49.880;8.648;2023-05-10T04:09:44;4.68;;;3.20;;
29240;SDS011;16268;49.880;8.648;2023-05-10T04:12:10;7.10;;;3.30;;
29240;SDS011;16268;49.880;8.648;2023-05-10T04:14:35;6.85;;;2.97;;
29240;SDS011;16268;49.880;8.648;2023-05-10T04:17:02;5.57;;;3.42;;
29240;SDS011;16268;49.880;8.648;2023-05-10T04:19:31;4.88;;;3.40;;
29240;SDS011;16268;49.880;8.648;2023-05-10T04:21:57;6.93;;;3.38;;
29240;SDS011;16268;49.880;8.648;2023-05-10T04:24:23;5.25;;;3.40;;
29240;SDS011;16268;49.880;8.648;2023-05-10T04:26:48;6.80;;;3.90;;
29240;SDS011;16268;49.880;8.648;2023-05-10T04:29:14;6.45;;;3.83;;
29240;SDS011;16268;49.880;8.648;2023-05-10T04:31:40;6.18;;;3.58;;
29240;SDS011;16268;49.880;8.648;2023-05-10T04:34:05;4.78;;;3.30;;
29240;SDS011;16268;49.880;8.648;2023-05-10T04:36:31;5.57;;;3.30;;
29240;SDS011;16268;49.880;8.648;2023-05-10T04:39:00;6.07;;;3.53;;
29240;SDS011;16268;49.880;8.648;2023-05-10T04:41:27;4.85;;;3.40;;
29240;SDS011;16268;49.880;8.648;2023-05-10T04:43:53;5.47;;;3.85;;
29240;SDS011;16268;49.880;8.648;2023-05-10T04:46:19;5.22;;;3.65;;
29240;SDS011;16268;49.880;8.648;2023-05-10T04:48:44;5.68;;;4.00;;
29240;SDS011;16268;49.880;8.648;2023-05-10T04:51:10;5.18;;;3.67;;
29240;SDS011;16268;49.880;8.648;2023-05-10T04:53:35;7.93;;;4.15;;
29240;SDS011;16268;49.880;8.648;2023-05-10T04:56:01;6.05;;;3.83;;
29240;SDS011;16268;49.880;8.648;2023-05-10T04:58:27;7.47;;;3.67;;
29240;SDS011;16268;49.880;8.648;2023-05-10T05:00:52;8.88;;;3.88;;
29240;SDS011;16268;49.880;8.648;2023-05-10T05:03:18;5.72;;;3.70;;
29240;SDS011;16268;49.880;8.648;2023-05-10T05:05:44;5.43;;;3.70;;
29240;SDS011;16268;49.880;8.648;2023-05-10T05:08:09;5.32;;;3.78;;
29240;SDS011;16268;49.880;8.648;2023-05-10T05:10:35;6.45;;;4.85;;
29240;SDS011;16268;49.880;8.648;2023-05-10T05:13:00;8.60;;;4.18;;
29240;SDS011;16268;49.880;8.648;2023-05-10T05:15:26;6.07;;;3.90;;
29240;SDS011;16268;49.880;8.648;2023-05-10T05:17:52;6.20;;;4.03;;
29240;SDS011;16268;49.880;8.648;2023-05-10T05:20:18;6.55;;;3.55;;
29240;SDS011;16268;49.880;8.648;2023-05-10T05:22:50;5.95;;;3.80;;
29240;SDS011;16268;49.880;8.648;2023-05-10T05:25:15;6.90;;;3.47;;
29240;SDS011;16268;49.880;8.648;2023-05-10T05:27:41;7.45;;;3.47;;
29240;SDS011;16268;49.880;8.648;2023-05-10T05:30:07;8.10;;;3.80;;
29240;SDS011;16268;49.880;8.648;2023-05-10T05:32:33;7.10;;;3.30;;
29240;SDS011;16268;49.880;8.648;2023-05-10T05:34:58;6.38;;;3.60;;
29240;SDS011;16268;49.880;8.648;2023-05-10T05:37:24;7.55;;;3.30;;
29240;SDS011;16268;49.880;8.648;2023-05-10T05:39:50;6.50;;;3.42;;
29240;SDS011;16268;49.880;8.648;2023-05-10T05:42:15;4.78;;;3.10;;
29240;SDS011;16268;49.880;8.648;2023-05-10T05:44:42;5.50;;;3.17;;
29240;SDS011;16268;49.880;8.648;2023-05-10T05:47:08;6.15;;;3.40;;
29240;SDS011;16268;49.880;8.648;2023-05-10T05:49:34;4.80;;;3.00;;
29240;SDS011;16268;49.880;8.648;2023-05-10T05:52:00;5.88;;;2.97;;
29240;SDS011;16268;49.880;8.648;2023-05-10T05:54:26;5.20;;;2.67;;
29240;SDS011;16268;49.880;8.648;2023-05-10T05:56:56;5.38;;;2.92;;
29240;SDS011;16268;49.880;8.648;2023-05-10T05:59:25;6.97;;;3.13;;
29240;SDS011;16268;49.880;8.648;2023-05-10T06:01:51;5.70;;;2.90;;
29240;SDS011;16268;49.880;8.648;2023-05-10T06:04:17;6.75;;;3.33;;
29240;SDS011;16268;49.880;8.648;2023-05-10T06:06:43;6.70;;;2.85;;
29240;SDS011;16268;49.880;8.648;2023-05-10T06:09:10;4.70;;;2.80;;
29240;SDS011;16268;49.880;8.648;2023-05-10T06:11:36;8.25;;;2.95;;
29240;SDS011;16268;49.880;8.648;2023-05-10T06:14:02;8.45;;;3.13;;
29240;SDS011;16268;49.880;8.648;2023-05-10T06:16:29;7.32;;;2.70;;
29240;SDS011;16268;49.880;8.648;2023-05-10T06:18:55;5.63;;;3.03;;
29240;SDS011;16268;49.880;8.648;2023-05-10T06:21:21;5.78;;;2.90;;
29240;SDS011;16268;49.880;8.648;2023-05-10T06:23:47;5.55;;;2.42;;
29240;SDS011;16268;49.880;8.648;2023-05-10T06:26:12;4.53;;;2.40;;
29240;SDS011;16268;49.880;8.648;2023-05-10T06:28:38;6.63;;;2.53;;
29240;SDS011;16268;49.880;8.648;2023-05-10T06:31:04;5.30;;;3.10;;
29240;SDS011;16268;49.880;8.648;2023-05-10T06:33:30;6.78;;;2.83;;
29240;SDS011;16268;49.880;8.648;2023-05-10T06:35:56;6.65;;;2.90;;
29240;SDS011;16268;49.880;8.648;2023-05-10T06:38:22;5.10;;;2.97;;
29240;SDS011;16268;49.880;8.648;2023-05-10T06:40:47;5.57;;;3.10;;
29240;SDS011;16268;49.880;8.648;2023-05-10T06:43:13;5.57;;;3.50;;
29240;SDS011;16268;49.880;8.648;2023-05-10T06:45:38;8.98;;;3.25;;
29240;SDS011;16268;49.880;8.648;2023-05-10T06:48:04;7.95;;;3.63;;
29240;SDS011;16268;49.880;8.648;2023-05-10T06:50:30;5.10;;;3.35;;
29240;SDS011;16268;49.880;8.648;2023-05-10T06:52:55;5.93;;;3.17;;
29240;SDS011;16268;49.880;8.648;2023-05-10T06:55:21;9.82;;;3.70;;
29240;SDS011;16268;49.880;8.648;2023-05-10T06:57:47;5.50;;;3.35;;
29240;SDS011;16268;49.880;8.648;2023-05-10T07:00:13;7.07;;;3.35;;
29240;SDS011;16268;49.880;8.648;2023-05-10T07:02:39;7.80;;;3.72;;
29240;SDS011;16268;49.880;8.648;2023-05-10T07:05:05;8.25;;;3.72;;
29240;SDS011;16268;49.880;8.648;2023-05-10T07:07:31;6.00;;;3.53;;
29240;SDS011;16268;49.880;8.648;2023-05-10T07:09:57;8.65;;;3.90;;
29240;SDS011;16268;49.880;8.648;2023-05-10T07:12:23;6.93;;;3.63;;
29240;SDS011;16268;49.880;8.648;2023-05-10T07:14:49;6.50;;;3.75;;
29240;SDS011;16268;49.880;8.648;2023-05-10T07:17:14;5.78;;;3.53;;
29240;SDS011;16268;49.880;8.648;2023-05-10T07:19:40;6.32;;;3.40;;
29240;SDS011;16268;49.880;8.648;2023-05-10T07:22:06;10.63;;;4.00;;
29240;SDS011;16268;49.880;8.648;2023-05-10T07:24:32;8.40;;;3.95;;
29240;SDS011;16268;49.880;8.648;2023-05-10T07:26:58;8.38;;;3.60;;
29240;SDS011;16268;49.880;8.648;2023-05-10T07:29:24;6.38;;;3.40;;
29240;SDS011;16268;49.880;8.648;2023-05-10T07:31:50;4.90;;;2.95;;
29240;SDS011;16268;49.880;8.648;2023-05-10T07:34:16;5.82;;;3.40;;
29240;SDS011;16268;49.880;8.648;2023-05-10T07:36:41;5.18;;;3.47;;
29240;SDS011;16268;49.880;8.648;2023-05-10T07:39:07;4.85;;;2.72;;
29240;SDS011;16268;49.880;8.648;2023-05-10T07:41:33;5.97;;;2.72;;
29240;SDS011;16268;49.880;8.648;2023-05-10T07:43:59;8.23;;;3.00;;
29240;SDS011;16268;49.880;8.648;2023-05-10T07:46:24;5.80;;;2.90;;
29240;SDS011;16268;49.880;8.648;2023-05-10T07:48:50;6.30;;;2.92;;
29240;SDS011;16268;49.880;8.648;2023-05-10T07:51:15;5.57;;;2.50;;
29240;SDS011;16268;49.880;8.648;2023-05-10T07:53:41;5.07;;;2.45;;
29240;SDS011;16268;49.880;8.648;2023-05-10T07:56:28;4.30;;;2.17;;
29240;SDS011;16268;49.880;8.648;2023-05-10T07:58:57;4.68;;;2.42;;
29240;SDS011;16268;49.880;8.648;2023-05-10T08:01:24;4.10;;;2.30;;
29240;SDS011;16268;49.880;8.648;2023-05-10T08:03:50;4.00;;;2.35;;
29240;SDS011;16268;49.880;8.648;2023-05-10T08:06:17;5.95;;;2.35;;
29240;SDS011;16268;49.880;8.648;2023-05-10T08:08:43;4.10;;;2.42;;
29240;SDS011;16268;49.880;8.648;2023-05-10T08:11:10;5.55;;;3.10;;
29240;SDS011;16268;49.880;8.648;2023-05-10T08:13:36;4.30;;;2.05;;
29240;SDS011;16268;49.880;8.648;2023-05-10T08:16:02;5.40;;;2.38;;
29240;SDS011;16268;49.880;8.648;2023-05-10T08:18:27;5.53;;;2.10;;
29240;SDS011;16268;49.880;8.648;2023-05-10T08:20:53;3.85;;;2.10;;
29240;SDS011;16268;49.880;8.648;2023-05-10T08:23:19;5.38;;;2.40;;
29240;SDS011;16268;49.880;8.648;2023-05-10T08:25:44;6.38;;;2.45;;
29240;SDS011;16268;49.880;8.648;2023-05-10T08:28:10;4.78;;;2.38;;
29240;SDS011;16268;49.880;8.648;2023-05-10T08:30:35;3.58;;;2.30;;
29240;SDS011;16268;49.880;8.648;2023-05-10T08:33:01;4.93;;;2.38;;
29240;SDS011;16268;49.880;8.648;2023-05-10T08:35:26;4.97;;;2.50;;
29240;SDS011;16268;49.880;8.648;2023-05-10T08:37:52;5.97;;;2.42;;
29240;SDS011;16268;49.880;8.648;2023-05-10T08:40:18;5.63;;;2.60;;
29240;SDS011;16268;49.880;8.648;2023-05-10T08:42:47;3.65;;;2.30;;
29240;SDS011;16268;49.880;8.648;2023-05-10T08:45:19;5.05;;;2.45;;
29240;SDS011;16268;49.880;8.648;2023-05-10T08:47:47;4.18;;;2.42;;
29240;SDS011;16268;49.880;8.648;2023-05-10T08:50:14;4.53;;;2.40;;
29240;SDS011;16268;49.880;8.648;2023-05-10T08:52:41;4.15;;;2.25;;
29240;SDS011;16268;49.880;8.648;2023-05-10T08:55:07;6.53;;;2.67;;
29240;SDS011;16268;49.880;8.648;2023-05-10T08:57:32;3.72;;;2.55;;
29240;SDS011;16268;49.880;8.648;2023-05-10T08:59:59;5.60;;;2.65;;
29240;SDS011;16268;49.880;8.648;2023-05-10T09:02:25;5.35;;;2.60;;
29240;SDS011;16268;49.880;8.648;2023-05-10T09:04:52;3.40;;;2.10;;
29240;SDS011;16268;49.880;8.648;2023-05-10T09:07:17;3.90;;;2.20;;
29240;SDS011;16268;49.880;8.648;2023-05-10T09:09:44;3.90;;;1.95;;
29240;SDS011;16268;49.880;8.648;2023-05-10T09:12:11;3.78;;;2.00;;
29240;SDS011;16268;49.880;8.648;2023-05-10T09:14:38;4.43;;;1.80;;
29240;SDS011;16268;49.880;8.648;2023-05-10T09:17:04;3.63;;;2.00;;
29240;SDS011;16268;49.880;8.648;2023-05-10T09:19:30;4.13;;;2.00;;
29240;SDS011;16268;49.880;8.648;2023-05-10T09:21:55;3.92;;;2.00;;
29240;SDS011;16268;49.880;8.648;2023-05-10T09:24:24;4.75;;;1.42;;
29240;SDS011;16268;49.880;8.648;2023-05-10T09:26:51;4.10;;;1.52;;
29240;SDS011;16268;49.880;8.648;2023-05-10T09:29:17;2.28;;;1.30;;
29240;SDS011;16268;49.880;8.648;2023-05-10T09:31:49;3.17;;;1.30;;
29240;SDS011;16268;49.880;8.648;2023-05-10T09:34:20;2.88;;;1.05;;
29240;SDS011;16268;49.880;8.648;2023-05-10T09:36:56;3.65;;;1.10;;
29240;SDS011;16268;49.880;8.648;2023-05-10T09:41:57;3.13;;;0.70;;
29240;SDS011;16268;49.880;8.648;2023-05-10T09:44:28;2.53;;;0.80;;
29240;SDS011;16268;49.880;8.648;2023-05-10T09:46:54;4.32;;;0.80;;
29240;SDS011;16268;49.880;8.648;2023-05-10T09:49:20;3.00;;;0.88;;
29240;SDS011;16268;49.880;8.648;2023-05-10T09:51:46;2.53;;;1.02;;
29240;SDS011;16268;49.880;8.648;2023-05-10T09:54:13;3.45;;;0.90;;
29240;SDS011;16268;49.880;8.648;2023-05-10T09:56:40;5.10;;;0.80;;
29240;SDS011;16268;49.880;8.648;2023-05-10T09:59:07;2.50;;;0.90;;
29240;SDS011;16268;49.880;8.648;2023-05-10T10:01:34;2.90;;;1.20;;
29240;SDS011;16268;49.880;8.648;2023-05-10T10:04:04;3.25;;;0.90;;
29240;SDS011;16268;49.880;8.648;2023-05-10T10:06:34;3.95;;;1.20;;
29240;SDS011;16268;49.880;8.648;2023-05-10T10:09:01;2.67;;;1.00;;
29240;SDS011;16268;49.880;8.648;2023-05-10T10:11:27;2.50;;;0.85;;
29240;SDS011;16268;49.880;8.648;2023-05-10T10:13:53;3.42;;;0.93;;
29240;SDS011;16268;49.880;8.648;2023-05-10T10:16:19;1.75;;;0.80;;
29240;SDS011;16268;49.880;8.648;2023-05-10T10:18:45;1.48;;;0.80;;
29240;SDS011;16268;49.880;8.648;2023-05-10T10:21:13;1.92;;;0.85;;
29240;SDS011;16268;49.880;8.648;2023-05-10T10:23:39;4.10;;;1.20;;
29240;SDS011;16268;49.880;8.648;2023-05-10T10:26:05;3.20;;;1.05;;
29240;SDS011;16268;49.880;8.648;2023-05-10T10:28:47;3.30;;;1.00;;
29240;SDS011;16268;49.880;8.648;2023-05-10T10:31:40;2.42;;;1.10;;
29240;SDS011;16268;49.880;8.648;2023-05-10T10:34:16;3.80;;;1.02;;
29240;SDS011;16268;49.880;8.648;2023-05-10T10:36:51;1.52;;;0.70;;
29240;SDS011;16268;49.880;8.648;2023-05-10T10:39:17;2.92;;;0.88;;
29240;SDS011;16268;49.880;8.648;2023-05-10T10:41:53;2.42;;;0.70;;
29240;SDS011;16268;49.880;8.648;2023-05-10T10:52:21;3.08;;;1.08;;
29240;SDS011;16268;49.880;8.648;2023-05-10T10:55:00;4.63;;;1.13;;
29240;SDS011;16268;49.880;8.648;2023-05-10T10:57:32;5.22;;;1.10;;
29240;SDS011;16268;49.880;8.648;2023-05-10T11:02:56;2.38;;;0.82;;
29240;SDS011;16268;49.880;8.648;2023-05-10T11:05:25;3.58;;;1.20;;
29240;SDS011;16268;49.880;8.648;2023-05-10T11:08:06;3.03;;;0.90;;
29240;SDS011;16268;49.880;8.648;2023-05-10T11:10:34;1.90;;;0.68;;
29240;SDS011;16268;49.880;8.648;2023-05-10T11:13:04;2.60;;;0.80;;
29240;SDS011;16268;49.880;8.648;2023-05-10T11:18:25;2.38;;;0.70;;
29240;SDS011;16268;49.880;8.648;2023-05-10T11:20:57;4.75;;;1.00;;
29240;SDS011;16268;49.880;8.648;2023-05-10T11:28:41;2.20;;;0.93;;
29240;SDS011;16268;49.880;8.648;2023-05-10T11:33:47;1.70;;;0.80;;
29240;SDS011;16268;49.880;8.648;2023-05-10T11:36:15;4.07;;;0.90;;
29240;SDS011;16268;49.880;8.648;2023-05-10T11:38:41;4.22;;;1.73;;
29240;SDS011;16268;49.880;8.648;2023-05-10T11:41:08;2.08;;;0.80;;
29240;SDS011;16268;49.880;8.648;2023-05-10T11:43:35;2.30;;;0.75;;
29240;SDS011;16268;49.880;8.648;2023-05-10T11:46:06;3.42;;;0.80;;
29240;SDS011;16268;49.880;8.648;2023-05-10T11:48:33;4.43;;;0.70;;
29240;SDS011;16268;49.880;8.648;2023-05-10T11:50:58;2.00;;;0.70;;
29240;SDS011;16268;49.880;8.648;2023-05-10T11:53:27;1.40;;;0.50;;
29240;SDS011;16268;49.880;8.648;2023-05-10T11:55:53;0.88;;;0.50;;
29240;SDS011;16268;49.880;8.648;2023-05-10T11:58:18;2.15;;;0.75;;
29240;SDS011;16268;49.880;8.648;2023-05-10T12:00:46;1.98;;;0.50;;
29240;SDS011;16268;49.880;8.648;2023-05-10T12:03:12;2.00;;;0.70;;
29240;SDS011;16268;49.880;8.648;2023-05-10T12:05:38;1.88;;;0.60;;
29240;SDS011;16268;49.880;8.648;2023-05-10T12:08:12;2.58;;;0.68;;
29240;SDS011;16268;49.880;8.648;2023-05-10T12:10:38;1.95;;;0.70;;
29240;SDS011;16268;49.880;8.648;2023-05-10T12:13:04;2.15;;;0.60;;
29240;SDS011;16268;49.880;8.648;2023-05-10T12:15:29;4.53;;;0.75;;
29240;SDS011;16268;49.880;8.648;2023-05-10T12:17:55;4.22;;;1.42;;
29240;SDS011;16268;49.880;8.648;2023-05-10T12:20:22;2.50;;;0.63;;
29240;SDS011;16268;49.880;8.648;2023-05-10T12:22:50;1.77;;;0.70;;
29240;SDS011;16268;49.880;8.648;2023-05-10T12:25:21;2.55;;;0.60;;
29240;SDS011;16268;49.880;8.648;2023-05-10T12:27:52;2.53;;;0.70;;
29240;SDS011;16268;49.880;8.648;2023-05-10T12:30:23;2.40;;;0.70;;
29240;SDS011;16268;49.880;8.648;2023-05-10T12:32:49;2.60;;;0.65;;
29240;SDS011;16268;49.880;8.648;2023-05-10T12:35:18;4.22;;;0.95;;
29240;SDS011;16268;49.880;8.648;2023-05-10T12:37:48;1.65;;;0.60;;
29240;SDS011;16268;49.880;8.648;2023-05-10T12:40:15;2.50;;;0.50;;
29240;SDS011;16268;49.880;8.648;2023-05-10T12:42:41;1.85;;;0.70;;
29240;SDS011;16268;49.880;8.648;2023-05-10T12:45:07;2.55;;;0.77;;
29240;SDS011;16268;49.880;8.648;2023-05-10T12:47:33;2.50;;;0.70;;
29240;SDS011;16268;49.880;8.648;2023-05-10T12:50:00;2.55;;;0.70;;
29240;SDS011;16268;49.880;8.648;2023-05-10T12:52:27;1.88;;;0.73;;
29240;SDS011;16268;49.880;8.648;2023-05-10T12:54:53;2.67;;;0.50;;
29240;SDS011;16268;49.880;8.648;2023-05-10T12:57:22;3.95;;;0.70;;
29240;SDS011;16268;49.880;8.648;2023-05-10T12:59:48;2.33;;;0.55;;
29240;SDS011;16268;49.880;8.648;2023-05-10T13:02:13;3.90;;;0.75;;
29240;SDS011;16268;49.880;8.648;2023-05-10T13:04:40;1.90;;;0.77;;
29240;SDS011;16268;49.880;8.648;2023-05-10T13:07:06;2.50;;;0.70;;
29240;SDS011;16268;49.880;8.648;2023-05-10T13:09:32;1.63;;;0.60;;
29240;SDS011;16268;49.880;8.648;2023-05-10T13:11:58;2.67;;;0.73;;
29240;SDS011;16268;49.880;8.648;2023-05-10T13:14:24;3.65;;;1.48;;
29240;SDS011;16268;49.880;8.648;2023-05-10T13:16:50;2.88;;;0.90;;
29240;SDS011;16268;49.880;8.648;2023-05-10T13:19:15;3.78;;;0.70;;
29240;SDS011;16268;49.880;8.648;2023-05-10T13:21:42;2.90;;;0.75;;
29240;SDS011;16268;49.880;8.648;2023-05-10T13:24:09;3.70;;;0.70;;
29240;SDS011;16268;49.880;8.648;2023-05-10T13:26:35;2.45;;;0.77;;
29240;SDS011;16268;49.880;8.648;2023-05-10T13:29:01;2.75;;;0.80;;
29240;SDS011;16268;49.880;8.648;2023-05-10T13:31:27;2.40;;;1.00;;
29240;SDS011;16268;49.880;8.648;2023-05-10T13:33:52;4.30;;;1.08;;
29240;SDS011;16268;49.880;8.648;2023-05-10T13:36:18;2.00;;;0.85;;
29240;SDS011;16268;49.880;8.648;2023-05-10T13:38:43;3.40;;;0.90;;
29240;SDS011;16268;49.880;8.648;2023-05-10T13:41:09;4.07;;;0.75;;
29240;SDS011;16268;49.880;8.648;2023-05-10T13:43:35;4.68;;;1.10;;
29240;SDS011;16268;49.880;8.648;2023-05-10T13:46:01;5.65;;;0.95;;
29240;SDS011;16268;49.880;8.648;2023-05-10T13:48:27;4.93;;;0.80;;
29240;SDS011;16268;49.880;8.648;2023-05-10T13:50:53;3.60;;;0.80;;
29240;SDS011;16268;49.880;8.648;2023-05-10T13:53:19;3.63;;;0.80;;
29240;SDS011;16268;49.880;8.648;2023-05-10T13:55:44;4.82;;;0.80;;
29240;SDS011;16268;49.880;8.648;2023-05-10T13:58:10;3.20;;;0.80;;
29240;SDS011;16268;49.880;8.648;2023-05-10T14:00:35;4.10;;;0.90;;
29240;SDS011;16268;49.880;8.648;2023-05-10T14:03:01;2.30;;;0.80;;
29240;SDS011;16268;49.880;8.648;2023-05-10T14:05:27;3.83;;;0.90;;
29240;SDS011;16268;49.880;8.648;2023-05-10T14:07:52;3.25;;;1.00;;
29240;SDS011;16268;49.880;8.648;2023-05-10T14:10:18;3.25;;;1.00;;
29240;SDS011;16268;49.880;8.648;2023-05-10T14:12:44;3.33;;;0.90;;
29240;SDS011;16268;49.880;8.648;2023-05-10T14:15:09;3.05;;;0.82;;
29240;SDS011;16268;49.880;8.648;2023-05-10T14:17:36;4.65;;;0.93;;
29240;SDS011;16268;49.880;8.648;2023-05-10T14:20:02;1.85;;;0.88;;
29240;SDS011;16268;49.880;8.648;2023-05-10T14:22:28;3.97;;;0.80;;
29240;SDS011;16268;49.880;8.648;2023-05-10T14:24:54;3.88;;;0.93;;
29240;SDS011;16268;49.880;8.648;2023-05-10T14:27:20;2.20;;;0.73;;
29240;SDS011;16268;49.880;8.648;2023-05-10T14:29:46;6.22;;;1.33;;
29240;SDS011;16268;49.880;8.648;2023-05-10T14:32:12;4.65;;;1.08;;
29240;SDS011;16268;49.880;8.648;2023-05-10T14:34:38;3.85;;;1.13;;
29240;SDS011;16268;49.880;8.648;2023-05-10T14:37:03;5.25;;;1.20;;
29240;SDS011;16268;49.880;8.648;2023-05-10T14:39:29;2.85;;;1.13;;
29240;SDS011;16268;49.880;8.648;2023-05-10T14:41:55;3.60;;;1.00;;
29240;SDS011;16268;49.880;8.648;2023-05-10T14:44:21;3.22;;;1.10;;
29240;SDS011;16268;49.880;8.648;2023-05-10T14:46:46;3.85;;;1.30;;
29240;SDS011;16268;49.880;8.648;2023-05-10T14:49:13;4.03;;;1.33;;
29240;SDS011;16268;49.880;8.648;2023-05-10T14:51:38;7.38;;;1.75;;
29240;SDS011;16268;49.880;8.648;2023-05-10T14:54:04;4.25;;;1.50;;
29240;SDS011;16268;49.880;8.648;2023-05-10T14:56:29;3.70;;;1.00;;
29240;SDS011;16268;49.880;8.648;2023-05-10T14:58:56;3.25;;;1.10;;
29240;SDS011;16268;49.880;8.648;2023-05-10T15:01:22;6.05;;;1.20;;
29240;SDS011;16268;49.880;8.648;2023-05-10T15:03:47;5.20;;;1.20;;
29240;SDS011;16268;49.880;8.648;2023-05-10T15:06:13;2.60;;;0.88;;
29240;SDS011;16268;49.880;8.648;2023-05-10T15:08:41;4.40;;;1.10;;
29240;SDS011;16268;49.880;8.648;2023-05-10T15:11:06;3.88;;;0.90;;
29240;SDS011;16268;49.880;8.648;2023-05-10T15:13:32;3.30;;;0.90;;
29240;SDS011;16268;49.880;8.648;2023-05-10T15:15:57;5.72;;;0.95;;
29240;SDS011;16268;49.880;8.648;2023-05-10T15:18:23;3.58;;;0.95;;
29240;SDS011;16268;49.880;8.648;2023-05-10T15:20:49;5.18;;;0.80;;
29240;SDS011;16268;49.880;8.648;2023-05-10T15:23:14;2.45;;;0.93;;
29240;SDS011;16268;49.880;8.648;2023-05-10T15:25:40;4.82;;;1.00;;
29240;SDS011;16268;49.880;8.648;2023-05-10T15:28:05;2.15;;;0.75;;
29240;SDS011;16268;49.880;8.648;2023-05-10T15:30:31;2.25;;;0.77;;